Time;durP1;ratioP1;P1;durP2;ratioP2;P2;SDS_P1;SDS_P2;PMS_P1;PMS_P2;Temp;Humidity;BMP_temperature;BMP_pressure;BME280_temperature;BME280_humidity;BME280_pressure;Samples;Min_cycle;Max_cycle;Signal;HPM_P1;HPM_P2
2023/05/26 00:00:52;;;;;;;19.60;5.15;;;13.00;99.90;;;;;;2105954;28;20454;-72
2023/05/26 00:01:52;;;;;;;16.48;5.53;;;13.00;99.90;;;;;;2106647;28;20051;-72
2023/05/26 00:02:53;;;;;;;19.05;5.68;;;13.00;99.90;;;;;;2104905;28;20024;-72
2023/05/26 00:03:56;;;;;;;17.58;4.85;;;13.00;99.90;;;;;;2107060;28;20076;-72
2023/05/26 00:04:58;;;;;;;20.23;5.93;;;13.00;99.90;;;;;;2104323;28;20643;-72
2023/05/26 00:05:58;;;;;;;19.95;6.10;;;12.90;99.90;;;;;;2104235;28;20630;-72
2023/05/26 00:06:59;;;;;;;13.80;4.93;;;12.90;99.90;;;;;;2107109;28;20156;-72
2023/05/26 00:08:00;;;;;;;19.38;5.85;;;12.90;99.90;;;;;;2105247;28;20030;-72
2023/05/26 00:09:01;;;;;;;23.73;6.18;;;12.90;99.90;;;;;;2103304;28;20035;-72
2023/05/26 00:10:01;;;;;;;21.20;5.22;;;12.90;99.90;;;;;;2101022;28;21451;-72
2023/05/26 00:11:02;;;;;;;21.40;5.22;;;12.90;99.90;;;;;;2106201;28;20051;-72
2023/05/26 00:12:04;;;;;;;16.80;5.60;;;12.90;99.90;;;;;;2103482;28;20025;-72
2023/05/26 00:13:06;;;;;;;19.98;5.68;;;12.90;99.90;;;;;;2104781;28;20073;-72
2023/05/26 00:14:08;;;;;;;20.90;5.97;;;12.80;99.90;;;;;;2106627;28;20055;-72
2023/05/26 00:15:09;;;;;;;20.13;5.70;;;12.80;99.90;;;;;;2104627;28;20541;-72
2023/05/26 00:16:10;;;;;;;21.38;5.70;;;12.80;99.90;;;;;;2102415;28;20813;-72
2023/05/26 00:17:11;;;;;;;23.35;6.07;;;12.80;99.90;;;;;;2102113;28;20632;-73
2023/05/26 00:18:11;;;;;;;22.73;6.55;;;12.80;99.90;;;;;;2102027;28;20031;-72
2023/05/26 00:19:12;;;;;;;20.85;5.80;;;12.80;99.90;;;;;;2104154;28;20043;-72
2023/05/26 00:20:13;;;;;;;28.17;6.85;;;12.80;99.90;;;;;;2102973;28;20086;-72
2023/05/26 00:21:14;;;;;;;19.08;5.63;;;12.80;99.90;;;;;;2106296;28;20403;-72
2023/05/26 00:22:15;;;;;;;20.40;6.20;;;12.80;99.90;;;;;;2105657;28;20031;-72
2023/05/26 00:23:16;;;;;;;22.30;5.57;;;12.80;99.90;;;;;;2105154;28;20020;-72
2023/05/26 00:24:17;;;;;;;22.17;5.85;;;12.80;99.90;;;;;;2104392;28;20036;-72
2023/05/26 00:25:17;;;;;;;21.92;5.53;;;12.70;99.90;;;;;;2104667;28;20619;-72
2023/05/26 00:26:18;;;;;;;24.08;6.45;;;12.70;99.90;;;;;;2105100;28;20450;-72
2023/05/26 00:27:18;;;;;;;19.55;5.53;;;12.70;99.90;;;;;;2105220;28;20024;-72
2023/05/26 00:28:19;;;;;;;23.13;6.03;;;12.70;99.90;;;;;;2104730;28;20039;-72
2023/05/26 00:29:20;;;;;;;22.50;5.28;;;12.60;99.90;;;;;;2105195;28;20095;-72
2023/05/26 00:30:20;;;;;;;15.73;5.25;;;12.60;99.90;;;;;;2106268;28;20039;-72
2023/05/26 00:31:21;;;;;;;16.33;5.03;;;12.60;99.90;;;;;;2101363;28;20032;-72
2023/05/26 00:32:21;;;;;;;20.90;5.85;;;12.60;99.90;;;;;;2102401;28;20484;-72
2023/05/26 00:33:22;;;;;;;22.45;5.93;;;12.60;99.90;;;;;;2103429;28;20107;-72
2023/05/26 00:34:22;;;;;;;19.10;5.57;;;12.50;99.90;;;;;;2104746;28;20027;-72
2023/05/26 00:35:23;;;;;;;20.25;5.72;;;12.50;99.90;;;;;;2103788;28;20094;-72
2023/05/26 00:36:23;;;;;;;23.65;5.90;;;12.50;99.90;;;;;;2105621;28;20654;-72
2023/05/26 00:37:24;;;;;;;18.55;5.53;;;12.50;99.90;;;;;;2101998;28;20024;-72
2023/05/26 00:38:24;;;;;;;18.67;6.07;;;12.50;99.90;;;;;;2101326;28;20043;-72
2023/05/26 00:39:25;;;;;;;19.13;5.43;;;12.50;99.90;;;;;;2101226;28;20331;-72
2023/05/26 00:40:26;;;;;;;22.88;5.65;;;12.40;99.90;;;;;;2105869;28;20012;-72
2023/05/26 00:41:26;;;;;;;28.17;7.40;;;12.40;99.90;;;;;;2106780;28;20077;-72
2023/05/26 00:42:27;;;;;;;21.58;6.03;;;12.40;99.90;;;;;;2104616;28;20031;-72
2023/05/26 00:43:27;;;;;;;20.10;5.88;;;12.40;99.90;;;;;;2102431;28;20490;-72
2023/05/26 00:44:28;;;;;;;17.63;5.78;;;12.40;99.90;;;;;;2107077;28;20024;-72
2023/05/26 00:45:29;;;;;;;19.23;5.55;;;12.40;99.90;;;;;;2103058;28;20085;-72
2023/05/26 00:46:30;;;;;;;21.25;6.40;;;12.30;99.90;;;;;;2105830;28;20024;-72
2023/05/26 00:47:31;;;;;;;27.48;6.40;;;12.30;99.90;;;;;;2101805;28;20059;-72
2023/05/26 00:48:31;;;;;;;20.33;6.40;;;12.30;99.90;;;;;;2103539;28;20077;-72
2023/05/26 00:49:32;;;;;;;22.40;5.65;;;12.30;99.90;;;;;;2102022;28;20715;-72
2023/05/26 00:50:33;;;;;;;20.60;5.43;;;12.30;99.90;;;;;;2104523;28;20090;-72
2023/05/26 00:51:33;;;;;;;19.42;5.90;;;12.30;99.90;;;;;;2104159;28;20028;-72
2023/05/26 00:52:34;;;;;;;18.02;5.57;;;12.30;99.90;;;;;;2102802;28;20027;-72
2023/05/26 00:53:41;;;;;;;25.63;5.82;;;12.20;99.90;;;;;;2102799;28;20028;-72
2023/05/26 00:54:42;;;;;;;19.60;5.15;;;12.30;99.90;;;;;;2105670;28;20093;-72
2023/05/26 00:55:44;;;;;;;19.48;5.13;;;12.20;99.90;;;;;;2103811;28;20020;-72
2023/05/26 00:56:44;;;;;;;19.55;5.35;;;12.20;99.90;;;;;;2104406;28;20020;-72
2023/05/26 00:57:45;;;;;;;24.48;5.65;;;12.20;99.90;;;;;;2102954;28;20095;-72
2023/05/26 00:58:46;;;;;;;18.05;4.90;;;12.20;99.90;;;;;;2102694;28;20024;-72
2023/05/26 00:59:47;;;;;;;20.20;5.65;;;12.20;99.90;;;;;;2104177;28;20495;-71
2023/05/26 01:00:48;;;;;;;22.38;5.65;;;12.20;99.90;;;;;;2102625;28;20098;-71
2023/05/26 01:01:51;;;;;;;16.92;5.60;;;12.20;99.90;;;;;;2102710;28;20024;-71
2023/05/26 01:02:57;;;;;;;23.70;5.45;;;12.20;99.90;;;;;;2103112;28;20508;-71
2023/05/26 01:03:58;;;;;;;19.92;5.40;;;12.20;99.90;;;;;;2108222;28;20453;-71
2023/05/26 01:04:59;;;;;;;21.67;6.03;;;12.20;99.90;;;;;;2107545;28;20039;-71
2023/05/26 01:06:00;;;;;;;22.90;5.68;;;12.10;99.90;;;;;;2102653;28;20020;-71
2023/05/26 01:07:00;;;;;;;20.13;5.70;;;12.10;99.90;;;;;;2105745;28;20032;-71
2023/05/26 01:08:02;;;;;;;22.42;5.82;;;12.10;99.90;;;;;;2105410;28;20020;-71
2023/05/26 01:09:03;;;;;;;17.38;4.85;;;12.10;99.90;;;;;;2104766;28;20580;-71
2023/05/26 01:10:04;;;;;;;22.35;6.20;;;12.10;99.90;;;;;;2106131;28;20429;-71
2023/05/26 01:11:36;;;;;;;19.42;5.85;;;12.10;99.90;;;;;;2106904;28;20028;-71
2023/05/26 01:12:55;;;;;;;23.48;5.80;;;12.10;99.90;;;;;;2095359;28;20038;-71
2023/05/26 01:14:04;;;;;;;21.42;4.97;;;12.10;99.90;;;;;;2104538;28;20027;-71
2023/05/26 01:15:19;;;;;;;20.27;6.38;;;12.00;99.90;;;;;;2106358;28;20020;-71
2023/05/26 01:16:27;;;;;;;17.35;4.70;;;12.00;99.90;;;;;;2104950;28;20043;-71
2023/05/26 01:17:38;;;;;;;20.02;5.97;;;12.00;99.90;;;;;;2104367;28;20401;-71
2023/05/26 01:18:46;;;;;;;19.60;4.38;;;12.00;99.90;;;;;;2105008;28;20032;-71
2023/05/26 01:20:07;;;;;;;16.13;4.78;;;12.00;99.90;;;;;;2104112;28;20645;-71
2023/05/26 01:21:12;;;;;;;15.73;4.13;;;12.00;99.90;;;;;;2106072;28;20510;-71
2023/05/26 01:22:30;;;;;;;19.83;5.05;;;11.90;99.90;;;;;;2105490;28;20123;-71
2023/05/26 01:23:52;;;;;;;18.83;5.45;;;11.90;99.90;;;;;;2104122;28;20456;-71
2023/05/26 01:25:06;;;;;;;17.70;4.40;;;11.90;99.90;;;;;;2104847;28;20504;-71
2023/05/26 01:26:17;;;;;;;20.30;4.97;;;11.90;99.90;;;;;;2105910;28;20024;-71
2023/05/26 01:27:52;;;;;;;19.75;5.03;;;11.90;99.90;;;;;;2104759;28;20465;-71
2023/05/26 01:29:00;;;;;;;19.95;5.55;;;11.80;99.90;;;;;;2092311;28;20036;-71
2023/05/26 01:30:01;;;;;;;19.52;4.85;;;11.80;99.90;;;;;;2094488;28;20352;-71
2023/05/26 01:31:02;;;;;;;17.20;5.82;;;11.80;99.90;;;;;;2098915;28;20072;-71
2023/05/26 01:32:08;;;;;;;22.85;4.93;;;11.80;99.90;;;;;;2104703;28;20047;-71
2023/05/26 01:33:09;;;;;;;20.70;6.13;;;11.80;99.90;;;;;;2103677;28;20030;-71
2023/05/26 01:34:09;;;;;;;20.42;4.97;;;11.80;99.90;;;;;;2105113;28;20475;-71
2023/05/26 01:35:10;;;;;;;17.15;4.72;;;11.80;99.90;;;;;;2103152;28;20076;-71
2023/05/26 01:36:11;;;;;;;22.70;5.63;;;11.80;99.90;;;;;;2103410;28;20108;-71
2023/05/26 01:37:11;;;;;;;22.02;6.45;;;11.80;99.90;;;;;;2098989;28;20031;-71
2023/05/26 01:38:13;;;;;;;24.25;5.57;;;11.70;99.90;;;;;;2103608;28;20059;-71
2023/05/26 01:39:13;;;;;;;22.10;6.38;;;11.70;99.90;;;;;;2104015;28;20111;-71
2023/05/26 01:40:14;;;;;;;25.65;5.38;;;11.70;99.90;;;;;;2105980;28;20023;-71
2023/05/26 01:41:26;;;;;;;16.42;4.50;;;11.70;99.90;;;;;;2104816;28;20032;-71
2023/05/26 01:42:33;;;;;;;16.55;4.57;;;11.70;99.90;;;;;;2105663;28;20111;-71
2023/05/26 01:43:43;;;;;;;17.63;5.38;;;11.60;99.90;;;;;;2104037;28;20028;-71
2023/05/26 01:44:53;;;;;;;;;;;11.70;99.90;;;;;;2103165;28;20512;-71
2023/05/26 01:46:10;;;;;;;15.10;4.75;;;11.60;99.90;;;;;;2102800;28;19914;-71
2023/05/26 01:47:13;;;;;;;19.50;5.60;;;11.60;99.90;;;;;;2103113;28;20024;-71
2023/05/26 01:48:16;;;;;;;16.35;4.55;;;11.60;99.90;;;;;;2102908;28;20035;-71
2023/05/26 01:49:23;;;;;;;17.80;5.07;;;11.50;99.90;;;;;;2103050;28;20479;-71
2023/05/26 01:50:34;;;;;;;19.88;5.15;;;11.50;99.90;;;;;;2104426;28;20031;-71
2023/05/26 01:51:38;;;;;;;15.15;5.15;;;11.50;99.90;;;;;;2103540;28;20471;-71
2023/05/26 01:52:42;;;;;;;22.60;6.30;;;11.50;99.90;;;;;;2103270;28;20024;-71
2023/05/26 01:53:44;;;;;;;17.73;5.72;;;11.50;99.90;;;;;;2103186;28;20020;-71
2023/05/26 01:54:50;;;;;;;17.67;4.78;;;11.50;99.90;;;;;;2103149;28;20020;-71
2023/05/26 01:55:55;;;;;;;14.48;4.45;;;11.50;99.90;;;;;;2104094;28;20009;-71
2023/05/26 01:56:57;;;;;;;11.68;4.22;;;11.50;99.90;;;;;;2102580;28;20039;-71
2023/05/26 01:57:58;;;;;;;20.83;5.25;;;11.40;99.90;;;;;;2103394;28;20051;-71
2023/05/26 01:59:01;;;;;;;21.52;5.38;;;11.40;99.90;;;;;;2104512;28;20028;-71
2023/05/26 02:00:03;;;;;;;14.45;4.85;;;11.40;99.90;;;;;;2102829;28;20016;-71
2023/05/26 02:01:04;;;;;;;19.85;5.03;;;11.40;99.90;;;;;;2104116;28;20024;-71
2023/05/26 02:02:04;;;;;;;14.80;4.95;;;11.40;99.90;;;;;;2105510;28;20031;-71
2023/05/26 02:03:05;;;;;;;15.95;4.57;;;11.40;99.90;;;;;;2105990;28;20021;-71
2023/05/26 02:04:05;;;;;;;15.98;5.55;;;11.40;99.90;;;;;;2105495;28;20031;-71
2023/05/26 02:05:07;;;;;;;23.10;5.10;;;11.30;99.90;;;;;;2105168;28;20544;-71
2023/05/26 02:06:07;;;;;;;17.17;4.43;;;11.30;99.90;;;;;;2106849;28;20016;-71
2023/05/26 02:07:08;;;;;;;19.20;5.10;;;11.30;99.90;;;;;;2102369;28;20031;-71
2023/05/26 02:08:12;;;;;;;16.80;4.63;;;11.30;99.90;;;;;;2103303;28;20112;-71
2023/05/26 02:09:12;;;;;;;14.57;4.18;;;11.20;99.90;;;;;;2104056;28;20073;-71
2023/05/26 02:10:13;;;;;;;16.60;4.63;;;11.20;99.90;;;;;;2099458;28;20161;-71
2023/05/26 02:11:13;;;;;;;13.95;4.18;;;11.20;99.90;;;;;;2104494;28;20031;-71
2023/05/26 02:12:14;;;;;;;13.82;4.47;;;11.20;99.90;;;;;;2105517;28;20024;-71
2023/05/26 02:13:15;;;;;;;19.48;4.43;;;11.20;99.90;;;;;;2103754;28;20067;-71
2023/05/26 02:14:15;;;;;;;13.27;4.72;;;11.20;99.90;;;;;;2106554;28;20093;-71
2023/05/26 02:15:16;;;;;;;11.98;4.15;;;11.20;99.90;;;;;;2102387;28;20032;-71
2023/05/26 02:16:16;;;;;;;15.93;4.40;;;11.10;99.90;;;;;;2102447;28;20024;-71
2023/05/26 02:17:18;;;;;;;14.20;4.85;;;11.10;99.90;;;;;;2104230;28;20016;-71
2023/05/26 02:18:21;;;;;;;14.20;4.32;;;11.10;99.90;;;;;;2103969;28;20706;-71
2023/05/26 02:19:22;;;;;;;19.02;4.80;;;11.10;99.90;;;;;;2102628;28;20020;-71
2023/05/26 02:20:24;;;;;;;14.80;4.30;;;11.00;99.90;;;;;;2103820;28;20205;-71
2023/05/26 02:21:24;;;;;;;12.38;4.68;;;11.00;99.90;;;;;;2103441;28;20188;-71
2023/05/26 02:22:25;;;;;;;20.50;5.40;;;11.00;99.90;;;;;;2104877;28;20024;-71
2023/05/26 02:23:27;;;;;;;20.92;5.15;;;11.00;99.90;;;;;;2102567;28;20662;-71
2023/05/26 02:24:27;;;;;;;11.27;3.92;;;11.00;99.90;;;;;;2104505;28;20023;-71
2023/05/26 02:25:28;;;;;;;15.13;4.47;;;11.00;99.90;;;;;;2104502;28;20071;-71
2023/05/26 02:26:28;;;;;;;14.52;4.93;;;10.90;99.90;;;;;;2104182;28;20024;-71
2023/05/26 02:27:29;;;;;;;18.13;4.65;;;10.90;99.90;;;;;;2106259;28;20525;-71
2023/05/26 02:28:30;;;;;;;19.90;5.30;;;10.90;99.90;;;;;;2106860;28;20437;-71
2023/05/26 02:29:30;;;;;;;19.80;4.75;;;10.90;99.90;;;;;;2105093;28;20047;-71
2023/05/26 02:30:31;;;;;;;18.42;5.25;;;10.90;99.90;;;;;;2105910;28;20376;-71
2023/05/26 02:31:33;;;;;;;20.52;5.75;;;10.80;99.90;;;;;;2106855;28;20020;-71
2023/05/26 02:32:34;;;;;;;14.88;4.57;;;10.80;99.90;;;;;;2096265;28;20715;-71
2023/05/26 02:33:40;;;;;;;15.32;4.80;;;10.80;99.90;;;;;;2102930;28;20036;-71
2023/05/26 02:34:40;;;;;;;15.95;4.35;;;10.80;99.90;;;;;;2102421;28;20069;-71
2023/05/26 02:35:41;;;;;;;24.65;6.88;;;10.80;99.90;;;;;;2103954;28;20507;-71
2023/05/26 02:36:41;;;;;;;18.65;5.35;;;10.70;99.90;;;;;;2106165;28;20032;-71
2023/05/26 02:37:42;;;;;;;20.80;5.03;;;10.70;99.90;;;;;;2106625;28;20032;-71
2023/05/26 02:38:42;;;;;;;17.13;4.85;;;10.70;99.90;;;;;;2105330;28;20054;-71
2023/05/26 02:39:43;;;;;;;17.40;4.43;;;10.70;99.90;;;;;;2104697;28;20028;-71
2023/05/26 02:40:44;;;;;;;15.82;5.18;;;10.70;99.90;;;;;;2109354;28;20024;-71
2023/05/26 02:41:44;;;;;;;16.45;5.20;;;10.70;99.90;;;;;;2105750;28;20028;-71
2023/05/26 02:42:45;;;;;;;16.02;4.80;;;10.70;99.90;;;;;;2105713;28;20160;-71
2023/05/26 02:43:45;;;;;;;21.30;5.80;;;10.70;99.90;;;;;;2105190;28;20444;-71
2023/05/26 02:44:46;;;;;;;21.08;5.38;;;10.60;99.90;;;;;;2107844;28;20038;-71
2023/05/26 02:45:47;;;;;;;25.45;6.32;;;10.60;99.90;;;;;;2104720;28;20027;-71
2023/05/26 02:46:47;;;;;;;20.92;5.95;;;10.70;99.90;;;;;;2104026;28;20029;-71
2023/05/26 02:47:48;;;;;;;24.83;6.10;;;10.60;99.90;;;;;;2107245;28;20549;-71
2023/05/26 02:48:48;;;;;;;26.77;6.13;;;10.60;99.90;;;;;;2104517;28;20247;-71
2023/05/26 02:49:49;;;;;;;16.33;5.10;;;10.60;99.90;;;;;;2105938;28;20567;-71
2023/05/26 02:50:49;;;;;;;20.55;5.85;;;10.60;99.90;;;;;;2103365;28;20573;-71
2023/05/26 02:51:50;;;;;;;16.70;5.13;;;10.60;99.90;;;;;;2106458;28;20029;-71
2023/05/26 02:52:50;;;;;;;19.80;5.45;;;10.60;99.90;;;;;;2105348;28;20545;-71
2023/05/26 02:53:51;;;;;;;20.23;5.53;;;10.60;99.90;;;;;;2104768;28;20024;-71
2023/05/26 02:54:51;;;;;;;24.10;5.72;;;10.60;99.90;;;;;;2107179;28;20111;-71
2023/05/26 02:55:52;;;;;;;33.10;7.40;;;10.60;99.90;;;;;;2104810;28;20373;-71
2023/05/26 02:56:55;;;;;;;18.02;5.78;;;10.60;99.90;;;;;;2104862;28;20046;-71
2023/05/26 02:57:56;;;;;;;23.25;6.35;;;10.60;99.90;;;;;;2105943;28;20040;-71
2023/05/26 02:58:57;;;;;;;25.63;7.32;;;10.60;99.90;;;;;;2103603;28;20479;-71
2023/05/26 02:59:57;;;;;;;28.73;6.68;;;10.60;99.90;;;;;;2107764;28;20032;-71
2023/05/26 03:00:58;;;;;;;31.13;6.25;;;10.60;99.90;;;;;;2105845;28;20047;-71
2023/05/26 03:01:58;;;;;;;32.35;6.47;;;10.60;99.90;;;;;;2103445;28;20016;-71
2023/05/26 03:03:00;;;;;;;19.55;5.55;;;10.60;99.90;;;;;;2104761;28;20055;-71
2023/05/26 03:04:00;;;;;;;25.35;5.78;;;10.60;99.90;;;;;;2108226;28;20043;-71
2023/05/26 03:05:01;;;;;;;20.25;6.40;;;10.60;99.90;;;;;;2104270;28;20021;-71
2023/05/26 03:06:02;;;;;;;28.60;7.13;;;10.60;99.90;;;;;;2104535;28;20031;-71
2023/05/26 03:07:03;;;;;;;24.20;6.38;;;10.60;99.90;;;;;;2105787;28;20011;-71
2023/05/26 03:08:03;;;;;;;27.42;6.38;;;10.60;99.90;;;;;;2104972;28;20027;-71
2023/05/26 03:09:04;;;;;;;23.17;6.20;;;10.50;99.90;;;;;;2105151;28;20024;-71
2023/05/26 03:10:05;;;;;;;21.17;6.13;;;10.60;99.90;;;;;;2104458;28;20028;-71
2023/05/26 03:11:06;;;;;;;28.75;7.10;;;10.60;99.90;;;;;;2105342;28;20041;-71
2023/05/26 03:12:06;;;;;;;26.55;6.72;;;10.50;99.90;;;;;;2104106;28;20020;-71
2023/05/26 03:13:07;;;;;;;28.45;8.00;;;10.60;99.90;;;;;;2106607;28;20367;-71
2023/05/26 03:14:07;;;;;;;34.65;8.15;;;10.60;99.90;;;;;;2106109;28;20047;-71
2023/05/26 03:15:08;;;;;;;34.00;8.52;;;10.50;99.90;;;;;;2106005;28;20015;-71
2023/05/26 03:16:10;;;;;;;23.25;6.68;;;10.50;99.90;;;;;;2103287;28;20403;-71
2023/05/26 03:17:11;;;;;;;24.63;6.70;;;10.60;99.90;;;;;;2099918;28;20483;-71
2023/05/26 03:18:13;;;;;;;32.65;7.47;;;10.50;99.90;;;;;;2099039;28;20090;-71
2023/05/26 03:19:14;;;;;;;28.58;6.35;;;10.50;99.90;;;;;;2106953;28;20578;-71
2023/05/26 03:20:14;;;;;;;27.90;6.03;;;10.60;99.90;;;;;;2107184;28;20450;-71
2023/05/26 03:21:16;;;;;;;25.50;7.85;;;10.50;99.90;;;;;;2104560;28;20522;-71
2023/05/26 03:22:17;;;;;;;28.73;6.47;;;10.60;99.90;;;;;;2103977;28;20016;-71
2023/05/26 03:23:17;;;;;;;34.45;7.43;;;10.60;99.90;;;;;;2103724;28;20032;-71
2023/05/26 03:24:18;;;;;;;24.73;6.13;;;10.60;99.90;;;;;;2106051;28;20100;-71
2023/05/26 03:25:19;;;;;;;26.48;7.63;;;10.60;99.90;;;;;;2105121;28;20054;-71
2023/05/26 03:26:22;;;;;;;30.27;6.28;;;10.60;99.90;;;;;;2105742;28;20023;-71
2023/05/26 03:27:23;;;;;;;27.98;7.40;;;10.60;99.90;;;;;;2105940;28;20031;-71
2023/05/26 03:28:24;;;;;;;29.90;7.18;;;10.60;99.90;;;;;;2103459;28;20113;-71
2023/05/26 03:29:24;;;;;;;32.75;7.25;;;10.60;99.90;;;;;;2104771;28;20039;-72
2023/05/26 03:30:25;;;;;;;29.45;7.32;;;10.60;99.90;;;;;;2102096;28;20432;-71
2023/05/26 03:31:26;;;;;;;27.40;6.93;;;10.60;99.90;;;;;;2100788;28;20351;-71
2023/05/26 03:32:28;;;;;;;31.13;7.95;;;10.60;99.90;;;;;;2104352;28;20059;-71
2023/05/26 03:33:30;;;;;;;28.13;6.85;;;10.60;99.90;;;;;;2104031;28;20027;-71
2023/05/26 03:34:30;;;;;;;25.85;7.32;;;10.60;99.90;;;;;;2104881;28;20019;-71
2023/05/26 03:35:31;;;;;;;33.95;7.47;;;10.60;99.90;;;;;;2105391;28;20016;-71
2023/05/26 03:36:32;;;;;;;26.63;7.60;;;10.60;99.90;;;;;;2103844;28;20020;-71
2023/05/26 03:37:32;;;;;;;30.95;7.28;;;10.60;99.90;;;;;;2105383;28;20044;-71
2023/05/26 03:38:33;;;;;;;29.13;7.78;;;10.60;99.90;;;;;;2104511;28;20016;-71
2023/05/26 03:39:34;;;;;;;34.88;7.85;;;10.60;99.90;;;;;;2104899;28;20043;-71
2023/05/26 03:40:34;;;;;;;24.42;6.05;;;10.60;99.90;;;;;;2104466;28;20031;-71
2023/05/26 03:41:35;;;;;;;32.35;8.15;;;10.60;99.90;;;;;;2105382;28;20024;-71
2023/05/26 03:42:35;;;;;;;28.13;7.65;;;10.60;99.90;;;;;;2104995;28;20036;-71
2023/05/26 03:43:36;;;;;;;24.92;7.07;;;10.60;99.90;;;;;;2107532;28;20384;-71
2023/05/26 03:44:36;;;;;;;28.92;7.20;;;10.60;99.90;;;;;;2104182;28;20024;-71
2023/05/26 03:45:37;;;;;;;24.60;6.88;;;10.60;99.90;;;;;;2106012;28;20028;-71
2023/05/26 03:46:37;;;;;;;31.27;7.78;;;10.60;99.90;;;;;;2105415;28;20079;-71
2023/05/26 03:47:38;;;;;;;30.58;6.80;;;10.60;99.90;;;;;;2103798;28;20503;-71
2023/05/26 03:48:39;;;;;;;30.58;7.30;;;10.60;99.90;;;;;;2105809;28;20024;-71
2023/05/26 03:49:39;;;;;;;36.28;7.38;;;10.60;99.90;;;;;;2104160;28;20024;-71
2023/05/26 03:50:41;;;;;;;26.08;6.47;;;10.70;99.90;;;;;;2103112;28;20095;-71
2023/05/26 03:51:42;;;;;;;29.85;7.53;;;10.70;99.90;;;;;;2104446;28;20074;-71
2023/05/26 03:52:42;;;;;;;27.25;8.63;;;10.70;99.90;;;;;;2103671;28;20091;-71
2023/05/26 03:53:43;;;;;;;32.35;7.60;;;10.70;99.90;;;;;;2105801;28;20510;-71
2023/05/26 03:54:44;;;;;;;28.42;7.28;;;10.70;99.90;;;;;;2101072;28;20040;-71
2023/05/26 03:55:44;;;;;;;28.92;6.97;;;10.60;99.90;;;;;;2102599;28;20028;-71
2023/05/26 03:56:45;;;;;;;32.38;7.05;;;10.70;99.90;;;;;;2101734;28;20200;-71
2023/05/26 03:57:45;;;;;;;25.10;6.93;;;10.70;99.90;;;;;;2103455;28;20020;-71
2023/05/26 03:58:46;;;;;;;28.95;7.80;;;10.70;99.90;;;;;;2104923;28;20126;-71
2023/05/26 03:59:46;;;;;;;35.20;7.03;;;10.70;99.90;;;;;;2105496;28;20032;-71
2023/05/26 04:00:47;;;;;;;28.58;6.90;;;10.70;99.90;;;;;;2105714;28;20197;-71
2023/05/26 04:01:48;;;;;;;30.30;7.18;;;10.70;99.90;;;;;;2106754;28;20384;-71
2023/05/26 04:02:49;;;;;;;29.85;7.57;;;10.70;99.90;;;;;;2103386;28;20028;-71
2023/05/26 04:03:50;;;;;;;33.45;8.15;;;10.70;99.90;;;;;;2104691;28;20016;-71
2023/05/26 04:04:51;;;;;;;29.83;9.05;;;10.70;99.90;;;;;;2103784;28;20059;-71
2023/05/26 04:05:51;;;;;;;23.80;6.20;;;10.70;99.90;;;;;;2104035;28;20117;-71
2023/05/26 04:06:52;;;;;;;32.83;8.13;;;10.70;99.90;;;;;;2105593;28;20028;-71
2023/05/26 04:07:52;;;;;;;36.78;7.57;;;10.70;99.90;;;;;;2104834;28;20089;-71
2023/05/26 04:08:53;;;;;;;31.33;6.95;;;10.70;99.90;;;;;;2105703;28;20032;-71
2023/05/26 04:09:53;;;;;;;30.63;7.88;;;10.70;99.90;;;;;;2103322;28;20028;-71
2023/05/26 04:10:55;;;;;;;30.42;6.93;;;10.70;99.90;;;;;;2105910;28;20036;-71
2023/05/26 04:11:55;;;;;;;27.48;7.25;;;10.70;99.90;;;;;;2102484;28;20031;-71
2023/05/26 04:12:56;;;;;;;36.00;8.57;;;10.70;99.90;;;;;;2105109;28;20091;-71
2023/05/26 04:13:57;;;;;;;28.95;8.20;;;10.70;99.90;;;;;;2103821;28;20031;-71
2023/05/26 04:14:58;;;;;;;29.52;7.60;;;10.70;99.90;;;;;;2104969;28;20024;-71
2023/05/26 04:15:58;;;;;;;30.75;7.95;;;10.70;99.90;;;;;;2104261;28;20507;-71
2023/05/26 04:16:59;;;;;;;34.30;8.35;;;10.70;99.90;;;;;;2104829;28;20047;-71
2023/05/26 04:18:00;;;;;;;28.08;7.15;;;10.70;99.90;;;;;;2106111;28;20027;-71
2023/05/26 04:19:00;;;;;;;31.17;7.68;;;10.80;99.90;;;;;;2103014;28;20020;-71
2023/05/26 04:20:05;;;;;;;27.33;7.43;;;10.70;99.90;;;;;;2066892;28;1054923;-71
2023/05/26 04:21:07;;;;;;;25.90;6.70;;;10.70;99.90;;;;;;2103030;28;20410;-71
2023/05/26 04:22:07;;;;;;;27.52;7.85;;;10.80;99.90;;;;;;2103396;28;20023;-71
2023/05/26 04:23:08;;;;;;;30.00;7.32;;;10.70;99.90;;;;;;2104200;28;20024;-71
2023/05/26 04:24:08;;;;;;;29.08;7.93;;;10.80;99.90;;;;;;2104230;28;20086;-71
2023/05/26 04:25:09;;;;;;;38.13;7.63;;;10.70;99.90;;;;;;2104583;28;20043;-71
2023/05/26 04:26:09;;;;;;;27.63;7.30;;;10.80;99.90;;;;;;2102620;28;20403;-71
2023/05/26 04:27:10;;;;;;;28.70;7.40;;;10.70;99.90;;;;;;2102957;28;20039;-71
2023/05/26 04:28:10;;;;;;;31.33;7.50;;;10.80;99.90;;;;;;2104884;28;20047;-71
2023/05/26 04:29:11;;;;;;;27.73;7.18;;;10.70;99.90;;;;;;2103603;28;20134;-71
2023/05/26 04:30:13;;;;;;;26.13;7.55;;;10.70;99.90;;;;;;2103554;28;20569;-71
2023/05/26 04:31:16;;;;;;;31.88;7.78;;;10.80;99.90;;;;;;2105128;28;20039;-71
2023/05/26 04:32:20;;;;;;;34.58;7.68;;;10.70;99.90;;;;;;2104319;28;20020;-71
2023/05/26 04:33:22;;;;;;;29.33;6.72;;;10.70;99.90;;;;;;2103532;28;20035;-71
2023/05/26 04:34:23;;;;;;;35.08;9.20;;;10.70;99.90;;;;;;2106752;28;20012;-71
2023/05/26 04:35:24;;;;;;;29.15;6.80;;;10.80;99.90;;;;;;2105491;28;20058;-71
2023/05/26 04:36:25;;;;;;;28.98;8.02;;;10.80;99.90;;;;;;2095144;28;20023;-71
2023/05/26 04:37:26;;;;;;;33.55;7.47;;;10.70;99.90;;;;;;2096445;28;20507;-71
2023/05/26 04:38:26;;;;;;;29.55;7.68;;;10.80;99.90;;;;;;2105233;28;20140;-71
2023/05/26 04:39:27;;;;;;;37.50;8.32;;;10.80;99.90;;;;;;2104426;28;20031;-71
2023/05/26 04:40:27;;;;;;;32.97;8.05;;;10.80;99.90;;;;;;2105284;28;20689;-71
2023/05/26 04:41:28;;;;;;;29.95;7.85;;;10.80;99.90;;;;;;2102579;28;20096;-71
2023/05/26 04:42:28;;;;;;;31.85;8.70;;;10.80;99.90;;;;;;2103453;28;20035;-71
2023/05/26 04:43:29;;;;;;;29.70;7.53;;;10.80;99.90;;;;;;2102237;28;20114;-71
2023/05/26 04:44:31;;;;;;;28.27;7.70;;;10.90;99.90;;;;;;2103416;28;20023;-71
2023/05/26 04:45:33;;;;;;;29.58;6.82;;;10.90;99.90;;;;;;2103699;28;20035;-71
2023/05/26 04:46:37;;;;;;;31.95;9.05;;;10.90;99.90;;;;;;2102237;28;20468;-71
2023/05/26 04:47:38;;;;;;;35.65;8.52;;;11.00;99.90;;;;;;2104223;28;20022;-71
2023/05/26 04:48:38;;;;;;;33.85;8.10;;;11.00;99.90;;;;;;2104626;28;20095;-71
2023/05/26 04:49:40;;;;;;;34.03;7.68;;;11.10;99.90;;;;;;2104758;28;20023;-71
2023/05/26 04:50:40;;;;;;;31.95;7.93;;;11.10;99.90;;;;;;2103594;28;20047;-71
2023/05/26 04:51:41;;;;;;;29.17;7.18;;;11.10;99.90;;;;;;2103839;28;20028;-71
2023/05/26 04:52:41;;;;;;;31.95;7.05;;;11.20;99.90;;;;;;2105523;28;20375;-71
2023/05/26 04:53:42;;;;;;;27.67;8.60;;;11.20;99.90;;;;;;2106254;28;20382;-71
2023/05/26 04:54:42;;;;;;;30.55;8.65;;;11.20;99.90;;;;;;2103653;28;20512;-71
2023/05/26 04:55:44;;;;;;;28.45;7.88;;;11.30;99.90;;;;;;2105842;28;20078;-71
2023/05/26 04:56:45;;;;;;;29.35;7.20;;;11.30;99.90;;;;;;2103607;28;20023;-71
2023/05/26 04:57:45;;;;;;;29.80;8.13;;;11.40;99.90;;;;;;2103675;28;20094;-71
2023/05/26 04:58:46;;;;;;;26.05;6.93;;;11.40;99.90;;;;;;2104580;28;20020;-71
2023/05/26 04:59:46;;;;;;;33.60;7.53;;;11.40;99.90;;;;;;2103449;28;20069;-71
2023/05/26 05:00:47;;;;;;;32.97;8.93;;;11.50;99.90;;;;;;2106365;28;20023;-71
2023/05/26 05:01:48;;;;;;;29.50;7.05;;;11.50;99.90;;;;;;2104487;28;20507;-71
2023/05/26 05:02:49;;;;;;;35.88;8.00;;;11.60;99.90;;;;;;2104070;28;20427;-71
2023/05/26 05:03:50;;;;;;;31.52;7.93;;;11.60;99.90;;;;;;2105176;28;20044;-71
2023/05/26 05:04:51;;;;;;;30.45;7.55;;;11.60;99.90;;;;;;2103104;28;20111;-71
2023/05/26 05:05:52;;;;;;;23.70;7.32;;;11.70;99.90;;;;;;2104887;28;20024;-71
2023/05/26 05:06:54;;;;;;;36.15;8.55;;;11.70;99.90;;;;;;2104731;28;20023;-71
2023/05/26 05:07:55;;;;;;;28.23;7.13;;;11.70;99.90;;;;;;2102670;28;20085;-71
2023/05/26 05:08:56;;;;;;;31.33;7.57;;;11.80;99.90;;;;;;2104322;28;20130;-71
2023/05/26 05:09:56;;;;;;;28.73;7.88;;;11.80;99.90;;;;;;2103852;28;20036;-71
2023/05/26 05:10:57;;;;;;;28.02;8.43;;;11.90;99.90;;;;;;2103975;28;20024;-72
2023/05/26 05:11:58;;;;;;;30.00;7.03;;;11.90;99.90;;;;;;2105717;28;20099;-71
2023/05/26 05:12:59;;;;;;;35.90;9.07;;;12.00;99.90;;;;;;2104087;28;20035;-71
2023/05/26 05:14:00;;;;;;;39.65;8.75;;;12.00;99.90;;;;;;2101687;28;20032;-71
2023/05/26 05:15:00;;;;;;;41.95;9.10;;;12.00;99.90;;;;;;2106423;28;20069;-71
2023/05/26 05:16:01;;;;;;;29.65;6.95;;;12.00;99.90;;;;;;2102571;28;20047;-71
2023/05/26 05:17:02;;;;;;;36.65;8.10;;;12.10;99.90;;;;;;2102791;28;20020;-71
2023/05/26 05:18:03;;;;;;;31.70;7.97;;;12.10;99.90;;;;;;2105324;28;20070;-71
2023/05/26 05:19:03;;;;;;;30.77;8.25;;;12.10;99.90;;;;;;2103744;28;20048;-71